createdAt,value
2018-06-04T00:00:38.235Z,89.27
2018-06-04T00:03:07.487Z,89.91
2018-06-04T00:05:36.731Z,90.52
2018-06-04T00:08:06.319Z,90.76
2018-06-04T00:10:35.554Z,90.65
2018-06-04T00:13:04.959Z,88.59
2018-06-04T00:15:34.159Z,90.46
2018-06-04T00:18:03.386Z,90.42
2018-06-04T00:20:32.603Z,91.46
2018-06-04T00:23:01.796Z,91.01
2018-06-04T00:25:31.037Z,91.91
2018-06-04T00:27:59.995Z,91.60
2018-06-04T00:30:29.222Z,91.85
2018-06-04T00:32:58.470Z,91.84
2018-06-04T00:35:28.303Z,89.95
2018-06-04T00:37:57.603Z,90.42
2018-06-04T00:40:26.918Z,91.21
2018-06-04T00:42:56.123Z,91.94
2018-06-04T00:45:25.360Z,91.06
2018-06-04T00:47:54.608Z,91.31
2018-06-04T00:50:23.932Z,91.85
2018-06-04T00:52:53.146Z,91.53
2018-06-04T00:55:22.363Z,91.92
2018-06-04T00:57:51.571Z,91.95
2018-06-04T01:00:20.810Z,91.37
2018-06-04T01:02:50.047Z,92.37
2018-06-04T01:05:19.261Z,92.64
2018-06-04T01:07:48.475Z,93.07
2018-06-04T01:10:17.701Z,92.29
2018-06-04T01:12:46.934Z,91.86
2018-06-04T01:15:16.255Z,91.63
2018-06-04T01:17:45.562Z,91.43
2018-06-04T01:20:14.808Z,89.95
2018-06-04T01:22:44.137Z,88.39
2018-06-04T01:25:13.359Z,90.57
2018-06-04T01:27:42.625Z,89.71
2018-06-04T01:30:11.827Z,89.93
2018-06-04T01:32:41.031Z,91.39
2018-06-04T01:35:10.256Z,91.22
2018-06-04T01:37:39.473Z,92.03
2018-06-04T01:40:08.737Z,92.12
2018-06-04T01:42:37.959Z,92.55
2018-06-04T01:45:07.218Z,93.43
2018-06-04T01:47:36.426Z,93.95
2018-06-04T01:50:05.662Z,93.36
2018-06-04T01:52:34.906Z,93.60
2018-06-04T01:55:04.144Z,92.97
2018-06-04T01:57:33.393Z,92.34
2018-06-04T02:00:02.713Z,92.08
2018-06-04T02:02:31.948Z,92.99
2018-06-04T02:05:01.539Z,93.86
2018-06-04T02:07:30.726Z,93.78
2018-06-04T02:09:59.951Z,93.94
2018-06-04T02:12:29.159Z,93.68
2018-06-04T02:14:58.433Z,93.68
2018-06-04T02:17:27.638Z,93.87
2018-06-04T02:19:56.866Z,94.01
2018-06-04T02:22:26.090Z,94.23
2018-06-04T02:24:55.310Z,94.09
2018-06-04T02:27:24.547Z,93.42
2018-06-04T02:29:53.841Z,93.61
2018-06-04T02:32:23.037Z,93.93
2018-06-04T02:34:52.259Z,94.15
2018-06-04T02:37:21.471Z,94.61
2018-06-04T02:39:50.703Z,94.31
2018-06-04T02:42:19.692Z,93.76
2018-06-04T02:44:48.907Z,93.51
2018-06-04T02:47:18.142Z,94.19
2018-06-04T02:49:47.458Z,93.52
2018-06-04T02:52:16.607Z,93.55
2018-06-04T02:54:45.582Z,94.11
2018-06-04T02:57:14.818Z,93.47
2018-06-04T02:59:44.032Z,92.53
2018-06-04T03:02:13.243Z,93.22
2018-06-04T03:04:42.568Z,93.60
2018-06-04T03:07:11.783Z,94.05
2018-06-04T03:09:41.016Z,93.62
2018-06-04T03:12:10.266Z,93.25
2018-06-04T03:14:39.468Z,93.42
2018-06-04T03:17:08.771Z,94.28
2018-06-04T03:19:38.023Z,94.18
2018-06-04T03:22:07.125Z,93.84
2018-06-04T03:24:36.338Z,93.65
2018-06-04T03:27:05.635Z,93.63
2018-06-04T03:29:34.851Z,93.52
2018-06-04T03:32:04.067Z,94.56
2018-06-04T03:34:33.312Z,93.07
2018-06-04T03:37:02.527Z,93.36
2018-06-04T03:39:31.815Z,92.79
2018-06-04T03:42:01.099Z,92.29
2018-06-04T03:44:30.403Z,92.98
2018-06-04T03:46:59.632Z,92.27
2018-06-04T03:49:28.839Z,92.83
2018-06-04T03:51:58.096Z,92.22
2018-06-04T03:54:27.279Z,91.92
2018-06-04T03:56:56.491Z,90.65
2018-06-04T03:59:25.682Z,90.88
2018-06-04T04:01:54.915Z,91.06
2018-06-04T04:04:24.155Z,88.70
2018-06-04T04:06:53.379Z,89.06
2018-06-04T04:09:22.610Z,90.86
2018-06-04T04:11:51.830Z,91.67
2018-06-04T04:14:21.023Z,91.87
2018-06-04T04:16:50.241Z,92.11
2018-06-04T04:19:20.369Z,92.07
2018-06-04T04:21:49.556Z,92.29
2018-06-04T04:24:18.792Z,90.99
2018-06-04T04:26:48.254Z,90.80
2018-06-04T04:29:17.566Z,90.25
2018-06-04T04:31:46.771Z,89.15
2018-06-04T04:34:15.998Z,89.29
2018-06-04T04:36:45.201Z,88.65
2018-06-04T04:39:14.547Z,88.49
2018-06-04T04:41:43.786Z,86.32
2018-06-04T04:44:13.079Z,85.40
2018-06-04T04:46:42.327Z,86.29
2018-06-04T04:49:11.531Z,86.75
2018-06-04T04:51:41.162Z,86.64
2018-06-04T04:54:10.156Z,73.49
2018-06-04T04:56:40.127Z,58.35
2018-06-04T04:59:09.349Z,51.53
2018-06-04T05:01:38.567Z,48.17
2018-06-04T05:04:07.794Z,50.28
2018-06-04T05:06:37.028Z,49.72
2018-06-04T05:09:09.162Z,46.76
2018-06-04T05:11:38.400Z,44.20
2018-06-04T05:14:07.610Z,39.10
2018-06-04T05:16:36.850Z,36.67
2018-06-04T05:19:06.108Z,34.02
2018-06-04T05:21:35.331Z,36.93
2018-06-04T05:24:04.558Z,37.91
2018-06-04T05:26:33.855Z,39.28
2018-06-04T05:29:03.054Z,37.27
2018-06-04T05:31:32.283Z,35.88
2018-06-04T05:34:01.689Z,33.71
2018-06-04T05:36:31.981Z,32.00
2018-06-04T05:39:03.136Z,28.86
2018-06-04T05:41:32.406Z,30.60
2018-06-04T05:44:01.600Z,27.70
2018-06-04T05:46:30.841Z,29.00
2018-06-04T05:49:00.125Z,27.94
2018-06-04T05:51:29.317Z,30.77
2018-06-04T05:53:58.552Z,29.62
2018-06-04T05:56:27.752Z,27.68
2018-06-04T05:58:56.974Z,27.28
2018-06-04T06:01:26.208Z,26.26
2018-06-04T06:03:55.424Z,27.35
2018-06-04T06:06:24.654Z,29.27
2018-06-04T06:08:53.886Z,27.37
2018-06-04T06:11:23.118Z,28.71
2018-06-04T06:13:52.328Z,27.57
2018-06-04T06:16:21.547Z,27.81
2018-06-04T06:18:50.832Z,27.61
2018-06-04T06:21:20.054Z,25.36
2018-06-04T06:23:49.283Z,24.82
2018-06-04T06:26:18.763Z,25.87
2018-06-04T06:28:47.979Z,26.58
2018-06-04T06:31:17.212Z,25.45
2018-06-04T06:33:46.416Z,27.27
2018-06-04T06:36:15.636Z,28.69
2018-06-04T06:38:44.850Z,26.51
2018-06-04T06:41:14.180Z,27.09
2018-06-04T06:43:43.407Z,25.62
2018-06-04T06:46:12.668Z,23.86
2018-06-04T06:48:41.903Z,24.15
2018-06-04T06:51:11.162Z,23.18
2018-06-04T06:53:40.483Z,22.05
2018-06-04T06:56:09.707Z,22.56
2018-06-04T06:58:38.930Z,28.05
2018-06-04T07:01:08.167Z,25.89
2018-06-04T07:03:37.398Z,25.68
2018-06-04T07:06:06.631Z,26.14
2018-06-04T07:08:36.246Z,29.63
2018-06-04T07:11:05.498Z,29.57
2018-06-04T07:13:34.919Z,27.65
2018-06-04T07:16:04.173Z,25.55
2018-06-04T07:18:33.359Z,26.91
2018-06-04T07:21:02.605Z,24.17
2018-06-04T07:23:31.942Z,24.62
2018-06-04T07:26:01.181Z,23.94
2018-06-04T07:28:30.399Z,23.72
2018-06-04T07:30:59.631Z,22.88
2018-06-04T07:33:28.872Z,28.14
2018-06-04T07:36:09.575Z,27.87
2018-06-04T07:38:39.000Z,25.61
2018-06-04T07:41:08.275Z,24.52
2018-06-04T07:43:37.440Z,21.54
2018-06-04T07:46:06.651Z,20.46
2018-06-04T07:48:35.945Z,22.90
2018-06-04T07:51:05.235Z,23.64
2018-06-04T07:53:34.628Z,20.02
2018-06-04T07:56:03.839Z,21.21
2018-06-04T07:58:33.118Z,22.42
2018-06-04T08:01:02.512Z,19.82
2018-06-04T08:03:31.733Z,17.91
2018-06-04T08:06:00.966Z,21.10
2018-06-04T08:08:30.174Z,22.22
2018-06-04T08:10:59.382Z,23.37
2018-06-04T08:13:28.610Z,20.76
2018-06-04T08:15:57.877Z,18.04
2018-06-04T08:18:27.171Z,17.49
2018-06-04T08:20:56.395Z,17.04
2018-06-04T08:23:25.684Z,18.03
2018-06-04T08:25:54.954Z,20.02
2018-06-04T08:28:24.256Z,16.48
2018-06-04T08:30:53.483Z,19.55
2018-06-04T08:33:22.765Z,19.06
2018-06-04T08:35:51.992Z,19.16
2018-06-04T08:38:21.239Z,19.17
2018-06-04T08:40:50.495Z,18.83
2018-06-04T08:43:19.715Z,24.80
2018-06-04T08:45:49.005Z,18.16
2018-06-04T08:48:18.176Z,17.85
2018-06-04T08:50:47.402Z,21.60
2018-06-04T08:53:16.632Z,18.62
2018-06-04T08:55:45.911Z,20.62
2018-06-04T08:58:15.208Z,23.95
2018-06-04T09:00:44.518Z,27.39
2018-06-04T09:03:13.722Z,28.32
2018-06-04T09:05:42.939Z,26.04
2018-06-04T09:08:12.203Z,22.22
2018-06-04T09:10:41.522Z,21.09
2018-06-04T09:13:10.810Z,26.22
2018-06-04T09:15:40.095Z,28.06
2018-06-04T09:18:09.263Z,28.60
2018-06-04T09:20:38.474Z,29.03
2018-06-04T09:23:07.692Z,28.19
2018-06-04T09:25:36.932Z,26.66
2018-06-04T09:28:06.159Z,29.06
2018-06-04T09:30:35.443Z,28.03
2018-06-04T09:33:04.660Z,27.72
2018-06-04T09:35:33.911Z,27.64
2018-06-04T09:38:03.134Z,26.32
2018-06-04T09:40:32.364Z,25.47
2018-06-04T09:43:01.801Z,29.50
2018-06-04T09:45:31.053Z,28.86
2018-06-04T09:48:00.260Z,28.84
2018-06-04T09:50:29.475Z,30.46
2018-06-04T09:52:58.678Z,29.83
2018-06-04T09:55:27.891Z,31.38
2018-06-04T09:57:57.160Z,25.19
2018-06-04T10:00:31.607Z,22.15
2018-06-04T10:03:00.803Z,24.59
2018-06-04T10:05:30.102Z,28.64
2018-06-04T10:07:59.336Z,28.96
2018-06-04T10:10:28.541Z,29.29
2018-06-04T10:12:57.767Z,27.38
2018-06-04T10:15:27.015Z,24.54
2018-06-04T10:17:56.219Z,27.76
2018-06-04T10:20:25.464Z,28.87
2018-06-04T10:22:54.675Z,27.57
2018-06-04T10:25:24.153Z,25.94
2018-06-04T10:27:53.373Z,24.63
2018-06-04T10:30:22.423Z,27.08
2018-06-04T10:32:51.765Z,26.68
2018-06-04T10:35:20.994Z,28.50
2018-06-04T10:37:50.199Z,25.75
2018-06-04T10:40:19.440Z,27.07
2018-06-04T10:42:48.653Z,29.77
2018-06-04T10:45:17.918Z,29.40
2018-06-04T10:47:47.145Z,28.69
2018-06-04T10:50:16.373Z,27.99
2018-06-04T10:52:45.643Z,28.97
2018-06-04T10:55:14.859Z,29.87
2018-06-04T10:57:44.086Z,29.62
2018-06-04T11:00:13.343Z,26.51
2018-06-04T11:02:42.572Z,29.20
2018-06-04T11:05:11.858Z,27.99
2018-06-04T11:07:41.078Z,26.82
2018-06-04T11:10:10.364Z,30.11
2018-06-04T11:12:39.682Z,29.44
2018-06-04T11:15:08.963Z,27.13
2018-06-04T11:17:38.195Z,29.69
2018-06-04T11:20:07.611Z,27.48
2018-06-04T11:22:36.834Z,23.44
2018-06-04T11:25:06.138Z,18.04
2018-06-04T11:27:35.414Z,25.66
2018-06-04T11:30:04.938Z,18.76
2018-06-04T11:32:35.399Z,23.90
2018-06-04T11:35:04.634Z,29.29
2018-06-04T11:37:33.892Z,28.48
2018-06-04T11:40:03.076Z,28.49
2018-06-04T11:42:32.294Z,30.80
2018-06-04T11:45:01.521Z,25.67
2018-06-04T11:47:30.742Z,29.26
2018-06-04T11:49:59.990Z,21.11
2018-06-04T11:52:29.284Z,26.97
2018-06-04T11:54:58.494Z,31.59
2018-06-04T11:57:27.711Z,31.49
2018-06-04T11:59:56.930Z,27.13
2018-06-04T12:02:26.174Z,27.61
2018-06-04T12:04:55.450Z,28.87
2018-06-04T12:07:24.679Z,33.27
2018-06-04T12:09:53.915Z,31.39
2018-06-04T12:12:23.187Z,30.08
2018-06-04T12:14:52.424Z,29.53
2018-06-04T12:17:21.677Z,29.19
2018-06-04T12:19:50.898Z,30.66
2018-06-04T12:22:20.254Z,33.41
2018-06-04T12:24:49.475Z,30.27
2018-06-04T12:27:18.796Z,32.67
2018-06-04T12:29:48.082Z,33.16
2018-06-04T12:32:17.381Z,28.97
2018-06-04T12:34:47.046Z,28.69
2018-06-04T12:37:16.537Z,32.65
2018-06-04T12:39:45.735Z,33.50
2018-06-04T12:42:14.958Z,33.26
2018-06-04T12:44:44.193Z,31.97
2018-06-04T12:47:13.446Z,33.62
2018-06-04T12:49:43.534Z,29.74
2018-06-04T12:52:12.805Z,28.18
2018-06-04T12:54:42.022Z,29.76
2018-06-04T12:57:11.300Z,33.26
2018-06-04T12:59:40.567Z,31.27
2018-06-04T13:02:09.866Z,32.03
2018-06-04T13:04:39.196Z,32.92
2018-06-04T13:07:08.478Z,29.91
2018-06-04T13:09:37.814Z,29.78
2018-06-04T13:12:07.082Z,30.89
2018-06-04T13:14:36.325Z,32.21
2018-06-04T13:17:05.713Z,30.54
2018-06-04T13:19:34.948Z,31.49
2018-06-04T13:22:04.158Z,31.22
2018-06-04T13:24:33.382Z,32.29
2018-06-04T13:27:02.589Z,32.62
2018-06-04T13:29:31.809Z,31.16
2018-06-04T13:32:01.007Z,30.74
2018-06-04T13:34:30.219Z,31.82
2018-06-04T13:36:59.419Z,30.77
2018-06-04T13:39:28.659Z,29.65
2018-06-04T13:41:57.833Z,31.96
2018-06-04T13:44:27.114Z,31.51
2018-06-04T13:46:56.346Z,32.17
2018-06-04T13:49:25.630Z,29.00
2018-06-04T13:51:54.908Z,30.56
2018-06-04T13:54:24.532Z,33.57
2018-06-04T13:56:53.765Z,33.84
2018-06-04T13:59:22.968Z,33.22
2018-06-04T14:01:52.171Z,34.20
2018-06-04T14:04:21.457Z,31.17
2018-06-04T14:06:50.689Z,32.24
2018-06-04T14:09:19.947Z,28.17
2018-06-04T14:11:49.168Z,28.60
2018-06-04T14:14:18.391Z,28.64
2018-06-04T14:16:47.618Z,27.81
2018-06-04T14:19:16.877Z,28.74
2018-06-04T14:21:46.243Z,33.04
2018-06-04T14:24:15.487Z,32.58
2018-06-04T14:26:44.719Z,32.38
2018-06-04T14:29:13.962Z,31.87
2018-06-04T14:31:43.225Z,30.46
2018-06-04T14:34:12.452Z,30.87
2018-06-04T14:36:41.680Z,32.23
2018-06-04T14:39:11.062Z,31.51
2018-06-04T14:41:40.288Z,32.89
2018-06-04T14:44:09.531Z,33.16
2018-06-04T14:46:38.768Z,33.56
2018-06-04T14:49:07.986Z,30.52
2018-06-04T14:51:37.306Z,32.90
2018-06-04T14:54:06.575Z,33.65
2018-06-04T14:56:35.799Z,29.86
2018-06-04T14:59:04.984Z,31.43
2018-06-04T15:01:34.191Z,34.11
2018-06-04T15:04:03.402Z,33.03
2018-06-04T15:06:32.624Z,32.85
2018-06-04T15:09:01.855Z,32.38
2018-06-04T15:11:31.085Z,31.98
2018-06-04T15:14:00.289Z,32.27
2018-06-04T15:16:29.505Z,33.32
2018-06-04T15:18:59.194Z,30.52
2018-06-04T15:21:28.398Z,32.13
2018-06-04T15:23:57.613Z,33.35
2018-06-04T15:26:26.831Z,32.37
2018-06-04T15:28:56.045Z,33.01
2018-06-04T15:31:25.525Z,31.68
2018-06-04T15:33:54.713Z,31.20
2018-06-04T15:36:23.912Z,33.18
2018-06-04T15:38:53.114Z,32.49
2018-06-04T15:41:22.321Z,32.25
2018-06-04T15:43:51.596Z,32.09
2018-06-04T15:46:20.865Z,32.68
2018-06-04T15:48:50.073Z,31.88
2018-06-04T15:51:19.362Z,34.14
2018-06-04T15:53:48.586Z,31.79
2018-06-04T15:56:17.864Z,33.25
2018-06-04T15:58:47.058Z,32.91
2018-06-04T16:01:16.309Z,33.31
2018-06-04T16:03:45.675Z,35.65
2018-06-04T16:06:14.894Z,31.85
2018-06-04T16:08:44.098Z,31.13
2018-06-04T16:11:13.307Z,31.12
2018-06-04T16:13:42.552Z,31.66
2018-06-04T16:16:11.771Z,32.62
2018-06-04T16:18:40.978Z,32.75
2018-06-04T16:21:10.410Z,32.46
2018-06-04T16:23:39.616Z,33.31
2018-06-04T16:26:08.990Z,33.39
2018-06-04T16:28:38.218Z,33.66
2018-06-04T16:31:07.462Z,32.87
2018-06-04T16:33:36.688Z,34.46
2018-06-04T16:36:05.923Z,34.79
2018-06-04T16:38:35.219Z,34.59
2018-06-04T16:41:04.452Z,33.93
2018-06-04T16:43:33.666Z,32.97
2018-06-04T16:46:02.932Z,34.54
2018-06-04T16:48:32.151Z,33.10
2018-06-04T16:51:01.379Z,32.90
2018-06-04T16:53:30.594Z,33.92
2018-06-04T16:56:00.008Z,34.23
2018-06-04T16:58:29.202Z,35.03
2018-06-04T17:00:58.420Z,32.68
2018-06-04T17:03:27.690Z,33.85
2018-06-04T17:05:57.000Z,32.86
2018-06-04T17:08:26.453Z,33.14
2018-06-04T17:10:55.674Z,33.16
2018-06-04T17:13:24.892Z,32.01
2018-06-04T17:15:54.133Z,33.40
2018-06-04T17:18:23.356Z,32.25
2018-06-04T17:20:52.610Z,32.03
2018-06-04T17:23:21.842Z,32.89
2018-06-04T17:25:51.643Z,32.36
2018-06-04T17:28:20.906Z,32.38
2018-06-04T17:30:50.130Z,32.84
2018-06-04T17:33:19.335Z,31.72
2018-06-04T17:35:48.566Z,33.01
2018-06-04T17:38:17.787Z,33.23
2018-06-04T17:40:47.018Z,32.52
2018-06-04T17:43:16.253Z,34.26
2018-06-04T17:45:45.487Z,34.78
2018-06-04T17:48:14.725Z,32.55
2018-06-04T17:50:43.956Z,33.17
2018-06-04T17:53:13.175Z,34.18
2018-06-04T17:55:42.412Z,32.52
2018-06-04T17:58:11.634Z,33.99
2018-06-04T18:00:40.862Z,34.54
2018-06-04T18:03:10.099Z,34.77
2018-06-04T18:05:39.338Z,34.23
2018-06-04T18:08:08.712Z,34.54
2018-06-04T18:10:37.933Z,34.87
2018-06-04T18:13:07.198Z,36.17
2018-06-04T18:15:36.406Z,36.29
2018-06-04T18:18:05.860Z,36.06
2018-06-04T18:20:35.069Z,37.44
2018-06-04T18:23:04.273Z,37.49
2018-06-04T18:25:34.584Z,39.50
2018-06-04T18:28:03.807Z,39.34
2018-06-04T18:30:33.124Z,39.95
2018-06-04T18:33:02.407Z,41.26
2018-06-04T18:35:31.643Z,41.97
2018-06-04T18:38:00.625Z,42.23
2018-06-04T18:40:29.854Z,43.08
2018-06-04T18:42:59.084Z,43.05
2018-06-04T18:45:28.322Z,44.34
2018-06-04T18:47:57.596Z,44.56
2018-06-04T18:50:27.022Z,44.70
2018-06-04T18:52:56.262Z,45.01
2018-06-04T18:55:25.470Z,45.34
2018-06-04T18:57:54.721Z,44.93
2018-06-04T19:00:24.782Z,46.32
2018-06-04T19:02:54.022Z,46.56
2018-06-04T19:05:23.242Z,47.72
2018-06-04T19:07:52.556Z,48.01
2018-06-04T19:10:21.797Z,48.94
2018-06-04T19:12:51.035Z,49.94
2018-06-04T19:15:20.343Z,50.25
2018-06-04T19:17:49.591Z,50.41
2018-06-04T19:20:18.808Z,52.58
2018-06-04T19:22:48.044Z,53.94
2018-06-04T19:25:17.298Z,54.50
2018-06-04T19:27:46.553Z,55.70
2018-06-04T19:30:15.781Z,57.65
2018-06-04T19:32:45.015Z,56.08
2018-06-04T19:35:14.250Z,57.00
2018-06-04T19:37:43.462Z,55.68
2018-06-04T19:40:12.690Z,56.00
2018-06-04T19:42:41.976Z,57.91
2018-06-04T19:45:11.210Z,57.61
2018-06-04T19:47:40.420Z,58.41
2018-06-04T19:50:09.680Z,61.78
2018-06-04T19:52:38.927Z,59.59
2018-06-04T19:55:08.180Z,59.08
2018-06-04T19:57:37.431Z,59.16
2018-06-04T20:00:06.675Z,56.10
2018-06-04T20:02:36.004Z,54.73
2018-06-04T20:05:05.251Z,54.26
2018-06-04T20:07:34.505Z,58.22
2018-06-04T20:10:03.751Z,57.93
2018-06-04T20:12:32.741Z,58.61
2018-06-04T20:15:01.968Z,61.63
2018-06-04T20:17:31.064Z,62.91
2018-06-04T20:20:00.453Z,64.21
2018-06-04T20:22:29.668Z,64.45
2018-06-04T20:24:59.206Z,62.80
2018-06-04T20:27:28.411Z,63.83
2018-06-04T20:29:57.652Z,61.42
2018-06-04T20:32:26.874Z,60.58
2018-06-04T20:34:56.098Z,61.99
2018-06-04T20:37:25.305Z,64.29
2018-06-04T20:39:54.557Z,61.40
2018-06-04T20:42:23.783Z,61.14
2018-06-04T20:44:53.016Z,64.19
2018-06-04T20:47:22.231Z,64.83
2018-06-04T20:49:51.494Z,65.14
2018-06-04T20:52:20.698Z,66.84
2018-06-04T20:54:49.907Z,67.91
2018-06-04T20:57:18.880Z,65.60
2018-06-04T20:59:48.166Z,64.99
2018-06-04T21:02:17.408Z,63.56
2018-06-04T21:04:46.390Z,63.83
2018-06-04T21:07:15.693Z,66.17
2018-06-04T21:09:44.962Z,67.80
2018-06-04T21:12:14.189Z,65.22
2018-06-04T21:14:43.442Z,69.29
2018-06-04T21:17:12.650Z,69.17
2018-06-04T21:19:41.885Z,70.12
2018-06-04T21:22:11.110Z,68.99
2018-06-04T21:24:40.353Z,70.69
2018-06-04T21:27:09.566Z,67.58
2018-06-04T21:29:38.810Z,66.31
2018-06-04T21:32:08.027Z,65.81
2018-06-04T21:34:37.257Z,65.35
2018-06-04T21:37:06.501Z,68.77
2018-06-04T21:39:35.759Z,68.88
2018-06-04T21:42:04.970Z,70.19
2018-06-04T21:44:34.198Z,67.25
2018-06-04T21:47:03.394Z,68.26
2018-06-04T21:49:32.601Z,69.47
2018-06-04T21:52:01.846Z,70.69
2018-06-04T21:54:31.083Z,71.27
2018-06-04T21:57:00.303Z,72.04
2018-06-04T21:59:29.531Z,69.70
2018-06-04T22:01:58.742Z,69.42
2018-06-04T22:04:27.951Z,72.41
2018-06-04T22:06:57.218Z,72.60
2018-06-04T22:09:26.424Z,73.27
2018-06-04T22:11:55.701Z,74.17
2018-06-04T22:14:24.906Z,73.75
2018-06-04T22:16:54.251Z,71.57
2018-06-04T22:19:23.422Z,71.64
2018-06-04T22:21:52.704Z,75.04
2018-06-04T22:24:21.953Z,75.47
2018-06-04T22:26:51.172Z,73.81
2018-06-04T22:29:20.442Z,74.62
2018-06-04T22:31:49.679Z,75.67
2018-06-04T22:34:18.896Z,75.08
2018-06-04T22:36:48.142Z,74.26
2018-06-04T22:39:17.362Z,74.59
2018-06-04T22:41:46.575Z,74.12
2018-06-04T22:44:15.843Z,74.16
2018-06-04T22:46:45.132Z,74.79
2018-06-04T22:49:14.378Z,77.23
2018-06-04T22:51:43.638Z,75.06
2018-06-04T22:54:12.870Z,75.54
2018-06-04T22:56:42.106Z,75.50
2018-06-04T22:59:11.382Z,74.62
2018-06-04T23:01:40.642Z,76.35
2018-06-04T23:04:09.858Z,77.51
2018-06-04T23:06:39.119Z,80.27
2018-06-04T23:09:08.868Z,79.63
2018-06-04T23:11:38.092Z,80.00
2018-06-04T23:14:07.313Z,79.77
2018-06-04T23:16:36.559Z,76.95
2018-06-04T23:19:05.811Z,78.29
2018-06-04T23:21:35.047Z,77.81
2018-06-04T23:24:04.263Z,78.68
2018-06-04T23:26:33.475Z,81.21
2018-06-04T23:29:02.704Z,80.54
2018-06-04T23:32:03.198Z,79.15
2018-06-04T23:34:32.435Z,80.59
2018-06-04T23:37:01.762Z,80.47
2018-06-04T23:39:30.995Z,81.63
2018-06-04T23:42:00.212Z,82.07
2018-06-04T23:44:29.433Z,81.88
2018-06-04T23:46:58.682Z,81.32
2018-06-04T23:49:27.928Z,81.33
2018-06-04T23:51:57.257Z,81.61
2018-06-04T23:54:26.486Z,82.98
2018-06-04T23:56:55.988Z,81.28
2018-06-04T23:59:25.201Z,83.13
